sensor_id;sensor_type;location;lat;lon;timestamp;P1;durP1;ratioP1;P2;durP2;ratioP2
8017;SDS011;4054;52.666;4.770;2022-09-09T00:00:29;72.13;;;65.90;;
8017;SDS011;4054;52.666;4.770;2022-09-09T00:01:07;71.70;;;65.67;;
8017;SDS011;4054;52.666;4.770;2022-09-09T00:01:47;73.55;;;66.75;;
8017;SDS011;4054;52.666;4.770;2022-09-09T00:02:26;72.63;;;66.20;;
8017;SDS011;4054;52.666;4.770;2022-09-09T00:03:02;73.30;;;66.53;;
8017;SDS011;4054;52.666;4.770;2022-09-09T00:03:40;71.45;;;65.70;;
8017;SDS011;4054;52.666;4.770;2022-09-09T00:04:19;73.90;;;66.75;;
8017;SDS011;4054;52.666;4.770;2022-09-09T00:04:59;72.35;;;66.25;;
8017;SDS011;4054;52.666;4.770;2022-09-09T00:05:47;72.72;;;66.22;;
8017;SDS011;4054;52.666;4.770;2022-09-09T00:06:27;71.60;;;65.20;;
8017;SDS011;4054;52.666;4.770;2022-09-09T00:07:03;73.25;;;66.82;;
8017;SDS011;4054;52.666;4.770;2022-09-09T00:07:42;73.28;;;66.55;;
8017;SDS011;4054;52.666;4.770;2022-09-09T00:08:18;73.43;;;66.97;;
8017;SDS011;4054;52.666;4.770;2022-09-09T00:08:58;72.60;;;66.28;;
8017;SDS011;4054;52.666;4.770;2022-09-09T00:09:38;72.55;;;66.30;;
8017;SDS011;4054;52.666;4.770;2022-09-09T00:10:19;72.65;;;66.40;;
8017;SDS011;4054;52.666;4.770;2022-09-09T00:10:59;73.45;;;66.88;;
8017;SDS011;4054;52.666;4.770;2022-09-09T00:11:38;72.53;;;66.38;;
8017;SDS011;4054;52.666;4.770;2022-09-09T00:12:14;72.75;;;66.40;;
8017;SDS011;4054;52.666;4.770;2022-09-09T00:12:53;72.53;;;65.93;;
8017;SDS011;4054;52.666;4.770;2022-09-09T00:13:33;72.50;;;66.40;;
8017;SDS011;4054;52.666;4.770;2022-09-09T00:14:12;72.22;;;65.82;;
8017;SDS011;4054;52.666;4.770;2022-09-09T00:14:51;72.95;;;66.35;;
8017;SDS011;4054;52.666;4.770;2022-09-09T00:15:26;72.55;;;66.25;;
8017;SDS011;4054;52.666;4.770;2022-09-09T00:16:07;72.27;;;66.00;;
8017;SDS011;4054;52.666;4.770;2022-09-09T00:16:50;73.13;;;66.55;;
8017;SDS011;4054;52.666;4.770;2022-09-09T00:17:29;72.88;;;66.35;;
8017;SDS011;4054;52.666;4.770;2022-09-09T00:18:10;71.75;;;65.90;;
8017;SDS011;4054;52.666;4.770;2022-09-09T00:18:51;72.18;;;65.97;;
8017;SDS011;4054;52.666;4.770;2022-09-09T00:19:31;71.68;;;65.53;;
8017;SDS011;4054;52.666;4.770;2022-09-09T00:20:12;72.28;;;65.80;;
8017;SDS011;4054;52.666;4.770;2022-09-09T00:20:48;73.07;;;66.53;;
8017;SDS011;4054;52.666;4.770;2022-09-09T00:21:28;72.47;;;66.28;;
8017;SDS011;4054;52.666;4.770;2022-09-09T00:22:08;72.00;;;65.95;;
8017;SDS011;4054;52.666;4.770;2022-09-09T00:22:47;73.18;;;66.68;;
8017;SDS011;4054;52.666;4.770;2022-09-09T00:23:28;72.55;;;66.15;;
8017;SDS011;4054;52.666;4.770;2022-09-09T00:24:08;72.97;;;66.50;;
8017;SDS011;4054;52.666;4.770;2022-09-09T00:24:51;73.13;;;66.40;;
8017;SDS011;4054;52.666;4.770;2022-09-09T00:25:27;73.45;;;66.70;;
8017;SDS011;4054;52.666;4.770;2022-09-09T00:26:08;72.43;;;66.32;;
8017;SDS011;4054;52.666;4.770;2022-09-09T00:26:44;72.03;;;65.82;;
8017;SDS011;4054;52.666;4.770;2022-09-09T00:27:23;72.45;;;66.18;;
8017;SDS011;4054;52.666;4.770;2022-09-09T00:28:04;72.55;;;66.47;;
8017;SDS011;4054;52.666;4.770;2022-09-09T00:28:50;74.10;;;67.50;;
8017;SDS011;4054;52.666;4.770;2022-09-09T00:29:32;73.43;;;66.97;;
8017;SDS011;4054;52.666;4.770;2022-09-09T00:30:13;73.43;;;66.93;;
8017;SDS011;4054;52.666;4.770;2022-09-09T00:30:50;72.25;;;66.22;;
8017;SDS011;4054;52.666;4.770;2022-09-09T00:31:25;73.15;;;66.85;;
8017;SDS011;4054;52.666;4.770;2022-09-09T00:32:04;72.97;;;66.70;;
8017;SDS011;4054;52.666;4.770;2022-09-09T00:32:42;73.03;;;66.60;;
8017;SDS011;4054;52.666;4.770;2022-09-09T00:33:17;72.25;;;66.30;;
8017;SDS011;4054;52.666;4.770;2022-09-09T00:33:53;72.65;;;66.13;;
8017;SDS011;4054;52.666;4.770;2022-09-09T00:34:29;73.82;;;67.15;;
8017;SDS011;4054;52.666;4.770;2022-09-09T00:35:14;72.88;;;66.47;;
8017;SDS011;4054;52.666;4.770;2022-09-09T00:35:50;72.95;;;66.63;;
8017;SDS011;4054;52.666;4.770;2022-09-09T00:36:27;74.38;;;67.45;;
8017;SDS011;4054;52.666;4.770;2022-09-09T00:37:01;73.03;;;66.80;;
8017;SDS011;4054;52.666;4.770;2022-09-09T00:37:35;73.03;;;66.72;;
8017;SDS011;4054;52.666;4.770;2022-09-09T00:38:09;73.68;;;67.07;;
8017;SDS011;4054;52.666;4.770;2022-09-09T00:38:45;73.10;;;66.65;;
8017;SDS011;4054;52.666;4.770;2022-09-09T00:39:23;73.50;;;66.88;;
8017;SDS011;4054;52.666;4.770;2022-09-09T00:40:02;72.85;;;66.50;;
8017;SDS011;4054;52.666;4.770;2022-09-09T00:40:49;72.93;;;66.40;;
8017;SDS011;4054;52.666;4.770;2022-09-09T00:41:26;76.00;;;68.22;;
8017;SDS011;4054;52.666;4.770;2022-09-09T00:42:13;73.03;;;66.43;;
8017;SDS011;4054;52.666;4.770;2022-09-09T00:42:48;72.53;;;66.25;;
8017;SDS011;4054;52.666;4.770;2022-09-09T00:43:31;73.28;;;66.88;;
8017;SDS011;4054;52.666;4.770;2022-09-09T00:44:10;73.43;;;66.95;;
8017;SDS011;4054;52.666;4.770;2022-09-09T00:44:56;73.13;;;66.82;;
8017;SDS011;4054;52.666;4.770;2022-09-09T00:45:42;72.30;;;66.22;;
8017;SDS011;4054;52.666;4.770;2022-09-09T00:46:32;72.95;;;66.65;;
8017;SDS011;4054;52.666;4.770;2022-09-09T00:47:30;73.60;;;67.07;;
8017;SDS011;4054;52.666;4.770;2022-09-09T00:48:11;73.97;;;67.38;;
8017;SDS011;4054;52.666;4.770;2022-09-09T00:48:50;73.22;;;66.72;;
8017;SDS011;4054;52.666;4.770;2022-09-09T00:49:30;72.18;;;65.95;;
8017;SDS011;4054;52.666;4.770;2022-09-09T00:50:15;74.20;;;67.30;;
8017;SDS011;4054;52.666;4.770;2022-09-09T00:51:02;73.55;;;66.72;;
8017;SDS011;4054;52.666;4.770;2022-09-09T00:51:44;73.13;;;66.55;;
8017;SDS011;4054;52.666;4.770;2022-09-09T00:52:24;73.95;;;67.22;;
8017;SDS011;4054;52.666;4.770;2022-09-09T00:53:11;73.93;;;67.35;;
8017;SDS011;4054;52.666;4.770;2022-09-09T00:53:59;73.78;;;67.47;;
8017;SDS011;4054;52.666;4.770;2022-09-09T00:54:48;74.43;;;67.60;;
8017;SDS011;4054;52.666;4.770;2022-09-09T00:55:27;73.75;;;67.35;;
8017;SDS011;4054;52.666;4.770;2022-09-09T00:56:09;74.32;;;67.72;;
8017;SDS011;4054;52.666;4.770;2022-09-09T00:56:46;73.90;;;67.55;;
8017;SDS011;4054;52.666;4.770;2022-09-09T00:57:23;74.38;;;67.88;;
8017;SDS011;4054;52.666;4.770;2022-09-09T00:58:00;74.18;;;67.68;;
8017;SDS011;4054;52.666;4.770;2022-09-09T00:58:34;73.80;;;67.22;;
8017;SDS011;4054;52.666;4.770;2022-09-09T00:59:11;74.63;;;68.00;;
8017;SDS011;4054;52.666;4.770;2022-09-09T01:00:14;74.00;;;67.32;;
8017;SDS011;4054;52.666;4.770;2022-09-09T01:00:50;73.70;;;66.97;;
8017;SDS011;4054;52.666;4.770;2022-09-09T01:01:25;74.72;;;67.65;;
8017;SDS011;4054;52.666;4.770;2022-09-09T01:01:58;73.13;;;66.80;;
8017;SDS011;4054;52.666;4.770;2022-09-09T01:02:35;73.00;;;66.53;;
8017;SDS011;4054;52.666;4.770;2022-09-09T01:03:26;73.80;;;67.30;;
8017;SDS011;4054;52.666;4.770;2022-09-09T01:04:06;74.30;;;67.70;;
8017;SDS011;4054;52.666;4.770;2022-09-09T01:04:42;73.03;;;66.97;;
8017;SDS011;4054;52.666;4.770;2022-09-09T01:05:18;73.85;;;67.25;;
8017;SDS011;4054;52.666;4.770;2022-09-09T01:06:10;73.78;;;67.03;;
8017;SDS011;4054;52.666;4.770;2022-09-09T01:06:45;73.60;;;67.00;;
8017;SDS011;4054;52.666;4.770;2022-09-09T01:07:25;73.05;;;66.53;;
8017;SDS011;4054;52.666;4.770;2022-09-09T01:08:00;73.75;;;66.97;;
8017;SDS011;4054;52.666;4.770;2022-09-09T01:08:39;73.53;;;67.20;;
8017;SDS011;4054;52.666;4.770;2022-09-09T01:09:25;74.47;;;67.80;;
8017;SDS011;4054;52.666;4.770;2022-09-09T01:10:07;73.82;;;67.30;;
8017;SDS011;4054;52.666;4.770;2022-09-09T01:10:47;73.95;;;67.13;;
8017;SDS011;4054;52.666;4.770;2022-09-09T01:11:23;73.07;;;66.88;;
8017;SDS011;4054;52.666;4.770;2022-09-09T01:12:02;73.13;;;66.97;;
8017;SDS011;4054;52.666;4.770;2022-09-09T01:12:42;73.13;;;66.93;;
8017;SDS011;4054;52.666;4.770;2022-09-09T01:13:22;74.22;;;67.50;;
8017;SDS011;4054;52.666;4.770;2022-09-09T01:14:03;73.05;;;66.93;;
8017;SDS011;4054;52.666;4.770;2022-09-09T01:14:47;73.80;;;67.30;;
8017;SDS011;4054;52.666;4.770;2022-09-09T01:15:24;73.38;;;67.00;;
8017;SDS011;4054;52.666;4.770;2022-09-09T01:16:01;74.25;;;67.53;;
8017;SDS011;4054;52.666;4.770;2022-09-09T01:16:37;73.30;;;66.82;;
8017;SDS011;4054;52.666;4.770;2022-09-09T01:17:14;75.57;;;68.60;;
8017;SDS011;4054;52.666;4.770;2022-09-09T01:17:58;73.43;;;66.60;;
8017;SDS011;4054;52.666;4.770;2022-09-09T01:18:39;73.53;;;66.80;;
8017;SDS011;4054;52.666;4.770;2022-09-09T01:19:17;73.88;;;67.38;;
8017;SDS011;4054;52.666;4.770;2022-09-09T01:20:02;73.85;;;67.45;;
8017;SDS011;4054;52.666;4.770;2022-09-09T01:20:49;73.90;;;67.10;;
8017;SDS011;4054;52.666;4.770;2022-09-09T01:21:33;73.72;;;67.05;;
8017;SDS011;4054;52.666;4.770;2022-09-09T01:22:12;75.07;;;68.22;;
8017;SDS011;4054;52.666;4.770;2022-09-09T01:22:58;74.30;;;67.78;;
8017;SDS011;4054;52.666;4.770;2022-09-09T01:23:47;74.35;;;67.53;;
8017;SDS011;4054;52.666;4.770;2022-09-09T01:25:07;73.72;;;67.28;;
8017;SDS011;4054;52.666;4.770;2022-09-09T01:26:11;74.57;;;67.83;;
8017;SDS011;4054;52.666;4.770;2022-09-09T01:27:02;74.47;;;67.78;;
8017;SDS011;4054;52.666;4.770;2022-09-09T01:27:37;73.82;;;67.43;;
8017;SDS011;4054;52.666;4.770;2022-09-09T01:28:12;74.45;;;67.65;;
8017;SDS011;4054;52.666;4.770;2022-09-09T01:28:51;74.00;;;67.43;;
8017;SDS011;4054;52.666;4.770;2022-09-09T01:29:32;74.93;;;68.00;;
8017;SDS011;4054;52.666;4.770;2022-09-09T01:30:07;74.75;;;68.03;;
8017;SDS011;4054;52.666;4.770;2022-09-09T01:30:42;75.30;;;68.65;;
8017;SDS011;4054;52.666;4.770;2022-09-09T01:31:19;74.72;;;68.03;;
8017;SDS011;4054;52.666;4.770;2022-09-09T01:31:54;74.40;;;67.78;;
8017;SDS011;4054;52.666;4.770;2022-09-09T01:32:40;74.18;;;67.88;;
8017;SDS011;4054;52.666;4.770;2022-09-09T01:33:17;74.57;;;67.70;;
8017;SDS011;4054;52.666;4.770;2022-09-09T01:33:50;74.32;;;67.53;;
8017;SDS011;4054;52.666;4.770;2022-09-09T01:34:25;75.00;;;68.30;;
8017;SDS011;4054;52.666;4.770;2022-09-09T01:35:02;75.15;;;68.05;;
8017;SDS011;4054;52.666;4.770;2022-09-09T01:35:42;73.55;;;67.18;;
8017;SDS011;4054;52.666;4.770;2022-09-09T01:36:25;75.35;;;68.55;;
8017;SDS011;4054;52.666;4.770;2022-09-09T01:37:04;74.35;;;67.70;;
8017;SDS011;4054;52.666;4.770;2022-09-09T01:37:38;74.95;;;68.20;;
8017;SDS011;4054;52.666;4.770;2022-09-09T01:38:12;74.10;;;67.90;;
8017;SDS011;4054;52.666;4.770;2022-09-09T01:38:46;74.15;;;67.70;;
8017;SDS011;4054;52.666;4.770;2022-09-09T01:39:19;74.47;;;67.75;;
8017;SDS011;4054;52.666;4.770;2022-09-09T01:40:02;73.93;;;67.60;;
8017;SDS011;4054;52.666;4.770;2022-09-09T01:40:36;74.00;;;67.30;;
8017;SDS011;4054;52.666;4.770;2022-09-09T01:41:09;75.20;;;68.28;;
8017;SDS011;4054;52.666;4.770;2022-09-09T01:41:51;74.85;;;68.00;;
8017;SDS011;4054;52.666;4.770;2022-09-09T01:42:24;74.20;;;67.75;;
8017;SDS011;4054;52.666;4.770;2022-09-09T01:42:57;74.18;;;67.70;;
8017;SDS011;4054;52.666;4.770;2022-09-09T01:43:30;74.50;;;67.80;;
8017;SDS011;4054;52.666;4.770;2022-09-09T01:44:03;75.30;;;68.85;;
8017;SDS011;4054;52.666;4.770;2022-09-09T01:44:39;74.55;;;68.10;;
8017;SDS011;4054;52.666;4.770;2022-09-09T01:45:12;75.53;;;68.65;;
8017;SDS011;4054;52.666;4.770;2022-09-09T01:45:45;75.53;;;68.53;;
8017;SDS011;4054;52.666;4.770;2022-09-09T01:46:21;75.50;;;68.18;;
8017;SDS011;4054;52.666;4.770;2022-09-09T01:46:55;75.35;;;68.50;;
8017;SDS011;4054;52.666;4.770;2022-09-09T01:47:27;73.93;;;67.50;;
8017;SDS011;4054;52.666;4.770;2022-09-09T01:48:13;75.43;;;68.88;;
8017;SDS011;4054;52.666;4.770;2022-09-09T01:48:50;75.50;;;68.43;;
8017;SDS011;4054;52.666;4.770;2022-09-09T01:49:24;75.10;;;68.30;;
8017;SDS011;4054;52.666;4.770;2022-09-09T01:49:57;76.65;;;69.57;;
8017;SDS011;4054;52.666;4.770;2022-09-09T01:50:33;75.22;;;68.40;;
8017;SDS011;4054;52.666;4.770;2022-09-09T01:51:05;75.43;;;68.45;;
8017;SDS011;4054;52.666;4.770;2022-09-09T01:51:39;75.53;;;68.80;;
8017;SDS011;4054;52.666;4.770;2022-09-09T01:52:17;75.13;;;68.47;;
8017;SDS011;4054;52.666;4.770;2022-09-09T01:52:52;74.90;;;68.10;;
8017;SDS011;4054;52.666;4.770;2022-09-09T01:53:32;74.57;;;67.85;;
8017;SDS011;4054;52.666;4.770;2022-09-09T01:54:06;76.53;;;69.70;;
8017;SDS011;4054;52.666;4.770;2022-09-09T01:54:39;76.90;;;69.80;;
8017;SDS011;4054;52.666;4.770;2022-09-09T01:55:19;75.70;;;68.75;;
8017;SDS011;4054;52.666;4.770;2022-09-09T01:56:02;75.35;;;68.60;;
8017;SDS011;4054;52.666;4.770;2022-09-09T01:56:50;75.53;;;68.68;;
8017;SDS011;4054;52.666;4.770;2022-09-09T01:57:34;75.93;;;69.40;;
8017;SDS011;4054;52.666;4.770;2022-09-09T01:58:18;75.95;;;69.15;;
8017;SDS011;4054;52.666;4.770;2022-09-09T01:59:03;76.57;;;69.50;;
8017;SDS011;4054;52.666;4.770;2022-09-09T01:59:53;75.78;;;68.70;;
8017;SDS011;4054;52.666;4.770;2022-09-09T02:00:45;76.85;;;69.60;;
8017;SDS011;4054;52.666;4.770;2022-09-09T02:01:25;76.97;;;69.73;;
8017;SDS011;4054;52.666;4.770;2022-09-09T02:02:09;75.53;;;68.93;;
8017;SDS011;4054;52.666;4.770;2022-09-09T02:02:53;76.75;;;69.82;;
8017;SDS011;4054;52.666;4.770;2022-09-09T02:03:40;75.45;;;68.63;;
8017;SDS011;4054;52.666;4.770;2022-09-09T02:04:26;75.97;;;68.80;;
8017;SDS011;4054;52.666;4.770;2022-09-09T02:05:12;75.72;;;68.93;;
8017;SDS011;4054;52.666;4.770;2022-09-09T02:05:55;75.80;;;68.93;;
8017;SDS011;4054;52.666;4.770;2022-09-09T02:06:37;75.93;;;69.03;;
8017;SDS011;4054;52.666;4.770;2022-09-09T02:07:29;76.68;;;69.65;;
8017;SDS011;4054;52.666;4.770;2022-09-09T02:08:14;77.20;;;69.72;;
8017;SDS011;4054;52.666;4.770;2022-09-09T02:08:56;76.03;;;68.97;;
8017;SDS011;4054;52.666;4.770;2022-09-09T02:09:31;77.07;;;69.72;;
8017;SDS011;4054;52.666;4.770;2022-09-09T02:10:05;75.55;;;68.82;;
8017;SDS011;4054;52.666;4.770;2022-09-09T02:10:49;75.95;;;68.68;;
8017;SDS011;4054;52.666;4.770;2022-09-09T02:11:39;76.68;;;69.28;;
8017;SDS011;4054;52.666;4.770;2022-09-09T02:12:24;75.13;;;68.40;;
8017;SDS011;4054;52.666;4.770;2022-09-09T02:13:02;75.90;;;68.85;;
8017;SDS011;4054;52.666;4.770;2022-09-09T02:13:40;76.15;;;69.10;;
8017;SDS011;4054;52.666;4.770;2022-09-09T02:14:19;77.13;;;70.07;;
8017;SDS011;4054;52.666;4.770;2022-09-09T02:14:57;77.00;;;69.80;;
8017;SDS011;4054;52.666;4.770;2022-09-09T02:15:45;76.75;;;69.75;;
8017;SDS011;4054;52.666;4.770;2022-09-09T02:16:23;76.57;;;69.63;;
8017;SDS011;4054;52.666;4.770;2022-09-09T02:17:01;76.20;;;69.00;;
8017;SDS011;4054;52.666;4.770;2022-09-09T02:18:06;76.80;;;69.55;;
8017;SDS011;4054;52.666;4.770;2022-09-09T02:18:42;77.05;;;70.05;;
8017;SDS011;4054;52.666;4.770;2022-09-09T02:19:21;76.30;;;69.00;;
8017;SDS011;4054;52.666;4.770;2022-09-09T02:20:07;77.20;;;69.75;;
8017;SDS011;4054;52.666;4.770;2022-09-09T02:20:49;76.72;;;69.88;;
8017;SDS011;4054;52.666;4.770;2022-09-09T02:21:22;77.82;;;70.32;;
8017;SDS011;4054;52.666;4.770;2022-09-09T02:21:56;77.13;;;70.25;;
8017;SDS011;4054;52.666;4.770;2022-09-09T02:22:32;76.35;;;69.10;;
8017;SDS011;4054;52.666;4.770;2022-09-09T02:23:07;77.20;;;69.68;;
8017;SDS011;4054;52.666;4.770;2022-09-09T02:23:43;76.57;;;69.63;;
8017;SDS011;4054;52.666;4.770;2022-09-09T02:24:19;76.75;;;69.65;;
8017;SDS011;4054;52.666;4.770;2022-09-09T02:25:00;77.78;;;70.18;;
8017;SDS011;4054;52.666;4.770;2022-09-09T02:25:34;77.90;;;70.28;;
8017;SDS011;4054;52.666;4.770;2022-09-09T02:26:19;76.53;;;69.25;;
8017;SDS011;4054;52.666;4.770;2022-09-09T02:27:01;76.65;;;69.57;;
8017;SDS011;4054;52.666;4.770;2022-09-09T02:27:39;77.55;;;70.30;;
8017;SDS011;4054;52.666;4.770;2022-09-09T02:28:14;77.55;;;69.95;;
8017;SDS011;4054;52.666;4.770;2022-09-09T02:28:49;77.47;;;69.97;;
8017;SDS011;4054;52.666;4.770;2022-09-09T02:29:24;78.22;;;70.75;;
8017;SDS011;4054;52.666;4.770;2022-09-09T02:30:01;77.75;;;70.53;;
8017;SDS011;4054;52.666;4.770;2022-09-09T02:30:43;77.15;;;70.05;;
8017;SDS011;4054;52.666;4.770;2022-09-09T02:31:21;77.55;;;70.13;;
8017;SDS011;4054;52.666;4.770;2022-09-09T02:31:59;76.75;;;69.43;;
8017;SDS011;4054;52.666;4.770;2022-09-09T02:32:38;77.28;;;69.95;;
8017;SDS011;4054;52.666;4.770;2022-09-09T02:33:15;78.38;;;70.97;;
8017;SDS011;4054;52.666;4.770;2022-09-09T02:33:53;78.82;;;71.18;;
8017;SDS011;4054;52.666;4.770;2022-09-09T02:34:28;78.05;;;70.65;;
8017;SDS011;4054;52.666;4.770;2022-09-09T02:35:03;77.28;;;69.97;;
8017;SDS011;4054;52.666;4.770;2022-09-09T02:35:42;76.88;;;69.78;;
8017;SDS011;4054;52.666;4.770;2022-09-09T02:36:17;77.95;;;70.15;;
8017;SDS011;4054;52.666;4.770;2022-09-09T02:36:52;77.78;;;70.50;;
8017;SDS011;4054;52.666;4.770;2022-09-09T02:37:28;77.50;;;70.15;;
8017;SDS011;4054;52.666;4.770;2022-09-09T02:38:08;78.25;;;70.55;;
8017;SDS011;4054;52.666;4.770;2022-09-09T02:38:49;78.43;;;70.85;;
8017;SDS011;4054;52.666;4.770;2022-09-09T02:39:29;78.70;;;71.28;;
8017;SDS011;4054;52.666;4.770;2022-09-09T02:40:02;77.70;;;70.53;;
8017;SDS011;4054;52.666;4.770;2022-09-09T02:40:36;77.55;;;70.13;;
8017;SDS011;4054;52.666;4.770;2022-09-09T02:41:10;77.47;;;70.05;;
8017;SDS011;4054;52.666;4.770;2022-09-09T02:41:42;76.72;;;69.90;;
8017;SDS011;4054;52.666;4.770;2022-09-09T02:42:15;78.13;;;70.97;;
8017;SDS011;4054;52.666;4.770;2022-09-09T02:42:50;77.72;;;70.43;;
8017;SDS011;4054;52.666;4.770;2022-09-09T02:43:25;78.25;;;70.72;;
8017;SDS011;4054;52.666;4.770;2022-09-09T02:44:05;77.28;;;70.28;;
8017;SDS011;4054;52.666;4.770;2022-09-09T02:44:42;78.03;;;70.50;;
8017;SDS011;4054;52.666;4.770;2022-09-09T02:45:16;79.28;;;71.80;;
8017;SDS011;4054;52.666;4.770;2022-09-09T02:45:53;77.97;;;70.68;;
8017;SDS011;4054;52.666;4.770;2022-09-09T02:46:37;77.85;;;70.53;;
8017;SDS011;4054;52.666;4.770;2022-09-09T02:47:26;78.50;;;70.72;;
8017;SDS011;4054;52.666;4.770;2022-09-09T02:48:14;79.05;;;71.80;;
8017;SDS011;4054;52.666;4.770;2022-09-09T02:48:58;78.22;;;70.82;;
8017;SDS011;4054;52.666;4.770;2022-09-09T02:49:40;80.75;;;72.68;;
8017;SDS011;4054;52.666;4.770;2022-09-09T02:50:24;78.32;;;70.90;;
8017;SDS011;4054;52.666;4.770;2022-09-09T02:51:00;79.88;;;72.07;;
8017;SDS011;4054;52.666;4.770;2022-09-09T02:51:50;77.35;;;70.10;;
8017;SDS011;4054;52.666;4.770;2022-09-09T02:52:30;80.20;;;72.38;;
8017;SDS011;4054;52.666;4.770;2022-09-09T02:53:10;79.72;;;71.80;;
8017;SDS011;4054;52.666;4.770;2022-09-09T02:53:50;81.45;;;73.20;;
8017;SDS011;4054;52.666;4.770;2022-09-09T02:54:32;80.68;;;72.97;;
8017;SDS011;4054;52.666;4.770;2022-09-09T02:55:12;81.40;;;73.07;;
8017;SDS011;4054;52.666;4.770;2022-09-09T02:55:51;79.95;;;72.32;;
8017;SDS011;4054;52.666;4.770;2022-09-09T02:56:27;81.13;;;73.03;;
8017;SDS011;4054;52.666;4.770;2022-09-09T02:57:08;82.05;;;73.85;;
8017;SDS011;4054;52.666;4.770;2022-09-09T02:57:44;82.72;;;74.45;;
8017;SDS011;4054;52.666;4.770;2022-09-09T02:58:21;82.55;;;74.38;;
8017;SDS011;4054;52.666;4.770;2022-09-09T02:59:03;83.65;;;75.28;;
8017;SDS011;4054;52.666;4.770;2022-09-09T02:59:38;80.18;;;72.70;;
8017;SDS011;4054;52.666;4.770;2022-09-09T03:00:11;82.18;;;74.13;;
8017;SDS011;4054;52.666;4.770;2022-09-09T03:00:46;84.82;;;76.07;;
8017;SDS011;4054;52.666;4.770;2022-09-09T03:01:22;83.15;;;74.72;;
8017;SDS011;4054;52.666;4.770;2022-09-09T03:01:55;83.88;;;75.40;;
8017;SDS011;4054;52.666;4.770;2022-09-09T03:02:28;82.53;;;74.10;;
8017;SDS011;4054;52.666;4.770;2022-09-09T03:03:07;84.55;;;75.85;;
8017;SDS011;4054;52.666;4.770;2022-09-09T03:03:41;83.45;;;75.15;;
8017;SDS011;4054;52.666;4.770;2022-09-09T03:04:19;83.68;;;75.35;;
8017;SDS011;4054;52.666;4.770;2022-09-09T03:04:53;84.45;;;76.03;;
8017;SDS011;4054;52.666;4.770;2022-09-09T03:05:26;82.88;;;74.53;;
8017;SDS011;4054;52.666;4.770;2022-09-09T03:06:00;82.88;;;74.68;;
8017;SDS011;4054;52.666;4.770;2022-09-09T03:06:32;82.70;;;74.53;;
8017;SDS011;4054;52.666;4.770;2022-09-09T03:07:17;82.70;;;74.32;;
8017;SDS011;4054;52.666;4.770;2022-09-09T03:07:53;83.35;;;75.07;;
8017;SDS011;4054;52.666;4.770;2022-09-09T03:08:26;83.03;;;74.65;;
8017;SDS011;4054;52.666;4.770;2022-09-09T03:09:00;82.65;;;74.43;;
8017;SDS011;4054;52.666;4.770;2022-09-09T03:09:34;85.63;;;76.85;;
8017;SDS011;4054;52.666;4.770;2022-09-09T03:10:07;84.50;;;76.13;;
8017;SDS011;4054;52.666;4.770;2022-09-09T03:10:42;82.35;;;74.05;;
8017;SDS011;4054;52.666;4.770;2022-09-09T03:11:18;84.70;;;75.85;;
8017;SDS011;4054;52.666;4.770;2022-09-09T03:11:50;83.50;;;75.10;;
8017;SDS011;4054;52.666;4.770;2022-09-09T03:12:24;84.38;;;75.90;;
8017;SDS011;4054;52.666;4.770;2022-09-09T03:12:57;83.30;;;75.07;;
8017;SDS011;4054;52.666;4.770;2022-09-09T03:13:34;83.70;;;75.18;;
8017;SDS011;4054;52.666;4.770;2022-09-09T03:14:07;83.05;;;74.95;;
8017;SDS011;4054;52.666;4.770;2022-09-09T03:14:42;83.03;;;74.55;;
8017;SDS011;4054;52.666;4.770;2022-09-09T03:15:17;83.20;;;74.43;;
8017;SDS011;4054;52.666;4.770;2022-09-09T03:15:51;83.93;;;75.55;;
8017;SDS011;4054;52.666;4.770;2022-09-09T03:16:25;82.93;;;74.60;;
8017;SDS011;4054;52.666;4.770;2022-09-09T03:16:58;83.65;;;75.43;;
8017;SDS011;4054;52.666;4.770;2022-09-09T03:17:38;84.30;;;75.47;;
8017;SDS011;4054;52.666;4.770;2022-09-09T03:18:11;84.70;;;75.47;;
8017;SDS011;4054;52.666;4.770;2022-09-09T03:18:44;82.82;;;74.80;;
8017;SDS011;4054;52.666;4.770;2022-09-09T03:19:17;83.10;;;74.88;;
8017;SDS011;4054;52.666;4.770;2022-09-09T03:19:50;83.88;;;75.72;;
8017;SDS011;4054;52.666;4.770;2022-09-09T03:20:24;84.00;;;75.53;;
8017;SDS011;4054;52.666;4.770;2022-09-09T03:20:58;82.75;;;74.32;;
8017;SDS011;4054;52.666;4.770;2022-09-09T03:21:32;82.57;;;74.43;;
8017;SDS011;4054;52.666;4.770;2022-09-09T03:22:05;82.25;;;74.03;;
8017;SDS011;4054;52.666;4.770;2022-09-09T03:22:40;82.70;;;74.32;;
8017;SDS011;4054;52.666;4.770;2022-09-09T03:23:13;83.60;;;75.00;;
8017;SDS011;4054;52.666;4.770;2022-09-09T03:23:47;84.38;;;75.70;;
8017;SDS011;4054;52.666;4.770;2022-09-09T03:24:21;84.70;;;76.28;;
8017;SDS011;4054;52.666;4.770;2022-09-09T03:24:54;82.90;;;74.88;;
8017;SDS011;4054;52.666;4.770;2022-09-09T03:25:26;83.97;;;75.33;;
8017;SDS011;4054;52.666;4.770;2022-09-09T03:26:01;82.60;;;74.15;;
8017;SDS011;4054;52.666;4.770;2022-09-09T03:26:42;83.72;;;75.05;;
8017;SDS011;4054;52.666;4.770;2022-09-09T03:27:18;84.60;;;75.85;;
8017;SDS011;4054;52.666;4.770;2022-09-09T03:27:52;82.40;;;74.10;;
8017;SDS011;4054;52.666;4.770;2022-09-09T03:28:27;83.78;;;75.40;;
8017;SDS011;4054;52.666;4.770;2022-09-09T03:29:07;84.63;;;75.82;;
8017;SDS011;4054;52.666;4.770;2022-09-09T03:29:41;84.45;;;75.93;;
8017;SDS011;4054;52.666;4.770;2022-09-09T03:30:17;82.22;;;74.03;;
8017;SDS011;4054;52.666;4.770;2022-09-09T03:30:50;84.22;;;75.65;;
8017;SDS011;4054;52.666;4.770;2022-09-09T03:31:24;84.82;;;76.22;;
8017;SDS011;4054;52.666;4.770;2022-09-09T03:31:56;84.70;;;75.55;;
8017;SDS011;4054;52.666;4.770;2022-09-09T03:32:29;85.07;;;76.30;;
8017;SDS011;4054;52.666;4.770;2022-09-09T03:33:03;83.65;;;75.10;;
8017;SDS011;4054;52.666;4.770;2022-09-09T03:33:37;84.00;;;75.38;;
8017;SDS011;4054;52.666;4.770;2022-09-09T03:34:10;84.60;;;76.15;;
8017;SDS011;4054;52.666;4.770;2022-09-09T03:34:45;84.75;;;76.20;;
8017;SDS011;4054;52.666;4.770;2022-09-09T03:35:21;84.72;;;75.82;;
8017;SDS011;4054;52.666;4.770;2022-09-09T03:35:53;86.93;;;77.53;;
8017;SDS011;4054;52.666;4.770;2022-09-09T03:36:28;83.72;;;75.40;;
8017;SDS011;4054;52.666;4.770;2022-09-09T03:37:02;84.18;;;75.60;;
8017;SDS011;4054;52.666;4.770;2022-09-09T03:37:34;84.18;;;75.82;;
8017;SDS011;4054;52.666;4.770;2022-09-09T03:38:07;84.18;;;75.72;;
8017;SDS011;4054;52.666;4.770;2022-09-09T03:38:41;85.95;;;77.38;;
8017;SDS011;4054;52.666;4.770;2022-09-09T03:39:14;85.55;;;76.55;;
8017;SDS011;4054;52.666;4.770;2022-09-09T03:39:47;83.60;;;75.35;;
8017;SDS011;4054;52.666;4.770;2022-09-09T03:40:22;84.63;;;76.55;;
8017;SDS011;4054;52.666;4.770;2022-09-09T03:40:55;85.35;;;76.53;;
8017;SDS011;4054;52.666;4.770;2022-09-09T03:41:29;86.55;;;77.20;;
8017;SDS011;4054;52.666;4.770;2022-09-09T03:42:04;86.28;;;77.38;;
8017;SDS011;4054;52.666;4.770;2022-09-09T03:42:38;84.28;;;75.88;;
8017;SDS011;4054;52.666;4.770;2022-09-09T03:43:11;85.45;;;76.70;;
8017;SDS011;4054;52.666;4.770;2022-09-09T03:43:44;85.75;;;76.80;;
8017;SDS011;4054;52.666;4.770;2022-09-09T03:44:18;86.63;;;77.22;;
8017;SDS011;4054;52.666;4.770;2022-09-09T03:44:51;85.68;;;76.68;;
8017;SDS011;4054;52.666;4.770;2022-09-09T03:45:27;87.07;;;77.60;;
8017;SDS011;4054;52.666;4.770;2022-09-09T03:46:01;83.97;;;75.45;;
8017;SDS011;4054;52.666;4.770;2022-09-09T03:46:34;84.72;;;76.03;;
8017;SDS011;4054;52.666;4.770;2022-09-09T03:47:09;85.28;;;76.05;;
8017;SDS011;4054;52.666;4.770;2022-09-09T03:47:42;84.35;;;76.03;;
8017;SDS011;4054;52.666;4.770;2022-09-09T03:48:15;84.75;;;76.35;;
8017;SDS011;4054;52.666;4.770;2022-09-09T03:48:48;86.07;;;76.80;;
8017;SDS011;4054;52.666;4.770;2022-09-09T03:49:23;86.65;;;77.28;;
8017;SDS011;4054;52.666;4.770;2022-09-09T03:49:56;85.97;;;76.93;;
8017;SDS011;4054;52.666;4.770;2022-09-09T03:50:29;84.85;;;76.07;;
8017;SDS011;4054;52.666;4.770;2022-09-09T03:51:03;86.35;;;77.32;;
8017;SDS011;4054;52.666;4.770;2022-09-09T03:51:37;85.55;;;76.50;;